Accueil
METAR-TAF:

METAR-TAF

Aéroports :

Middle Wallop, Angleterre

Army Air Corps Middle Wallop

latitude: 51-09N, longitude: 001-34W, altitude: 91 m

Observation

Le bulletin a été fait il y a 1 heure et 8 minutes, à 00:50 UTC
Vent 9 kt de sud-ouest
Température 16°C
Humidité 82%
Pression 1016 hPa
Visibilité 10 km ou plus

METAR: EGVP 240050Z AUTO 23009KT 9999 // OVC016/// 16/13 Q1016

Heure: 02:58 (01:58 UTC)

Prévision

Le bulletin a été fait il y a 15 heures et 24 minutes, à 10:34 UTC
Prévision valable du 23 à 12 UTC au 23 à 16 UTC
Vent 12 kt de ouest/sud-ouest
Visibilité 10 km ou plus
Nuages fragmentés à une hauteur de 3200 ft

TAF: EGVP 231034Z 2312/2316 25012KT 9999 BKN032

Observations et prévisions météorologiques de plus de 4000 aéroports (messages METAR et TAF).

Les stations disponibles sont représentées par des disques jaunes et rouges sur la carte.

Passer la souris dessus pour voir le nom de la station.

Cliquer dessus pour voir les observations et prévisions météorologiques.

Pour changer de carte: cliquez sur les boutons verts avec une croix noire pour zoomer, sur le bouton vert avec un tiret pour effectuer un zoom arrière, ou sur les flèches vertes pour les cartes adjacentes.


METAR-TAF: